This is the latest recevied weather packets stored in our database for station/object VE6KEE-13. If no packets are shown the sender has not sent any weather packets the latest 10 day(s).
| Time | Temp. | Humidity | Pressure | Rain* | Wind** | Luminosity | Snow |
|---|---|---|---|---|---|---|---|
| 1778092625 | 18.33° C | 16% | 1013.9 hPa | 0 mm | - | - | - |
| 1778091725 | 18.33° C | 15% | 1014.2 hPa | 0 mm | - | - | - |
| 1778090825 | 18.33° C | 15% | 1014.2 hPa | 0 mm | - | - | - |
| 1778089925 | 18.33° C | 17% | 1014.5 hPa | 0 mm | - | - | - |
| 1778089025 | 18.33° C | 16% | 1014.7 hPa | 0 mm | - | - | - |
| 1778088119 | 17.78° C | 16% | 1015 hPa | 0 mm | - | - | - |
| 1778087219 | 17.78° C | 18% | 1015.3 hPa | 0 mm | - | - | - |
| 1778086318 | 17.22° C | 20% | 1015.5 hPa | 0 mm | - | - | - |
| 1778085419 | 16.11° C | 21% | 1015.7 hPa | 0 mm | - | - | - |
| 1778084516 | 15.56° C | 22% | 1016 hPa | 0 mm | - | - | - |
| 1778083624 | 14.44° C | 24% | 1016.3 hPa | 0 mm | - | - | - |
| 1778082718 | 13.33° C | 26% | 1016.8 hPa | 0 mm | - | - | - |
| 1778081813 | 12.22° C | 26% | 1016.9 hPa | 0 mm | - | - | - |
| 1778080913 | 11.11° C | 28% | 1017.2 hPa | 0 mm | - | - | - |
| 1778080012 | 10.56° C | 31% | 1017.5 hPa | 0 mm | - | - | - |
| 1778079123 | 8.89° C | 33% | 1017.7 hPa | 0 mm | - | - | - |
| 1778078217 | 6.67° C | 37% | 1018 hPa | 0 mm | - | - | - |
| 1778077322 | 3.89° C | 42% | 1018.4 hPa | 0 mm | - | - | - |
| 1778076412 | 2.22° C | 44% | 1018.6 hPa | 0 mm | - | - | - |
| 1778075509 | 0.56° C | 46% | 1018.9 hPa | 0 mm | - | - | - |
| 1778074611 | 0° C | 48% | 1019.3 hPa | 0 mm | - | - | - |
| 1778073711 | -0.56° C | 48% | 1019.4 hPa | 0 mm | - | - | - |
| 1778072811 | -1.11° C | 48% | 1019.4 hPa | 0 mm | - | - | - |
| 1778071905 | -1.11° C | 48% | 1019.5 hPa | 0 mm | - | - | - |
| 1778071005 | -1.11° C | 48% | 1019.5 hPa | 0 mm | - | - | - |
* Rain since midnight (hover to see other rain measurements)
** Current wind speed in m/s (hover to see current wind gust speed)